Terminal Aerodrome Forecast
Issued by NWS Raleigh/Durham, NC

Home | Current Version | Previous Version | Text Only | Print | Product List | Glossary On
Versions: 1 2 3 4 5 6 7 8 9 10 11 12 13 14 15 16 17 18 19 20 21 22 23
000
FTUS42 KRAH 212327
TAFRDU
TAF
KRDU 212327Z 2200/2224 22010KT P6SM SCT028 BKN040
      TEMPO 2201/2204 5SM BR BKN012 BKN025
     FM220700 20004KT 6SM BR OVC008
      TEMPO 2210/2214 3SM BR OVC005
     FM221600 22010KT P6SM FEW008 SCT020 BKN200=

USA.gov is the U.S. government's official web portal to all federal, state and local government web resources and services.